This is the latest recevied weather packets stored in our database for station/object KB3FKJ. If no packets are shown the sender has not sent any weather packets the latest 10 day(s).
| Time | Temp. | Humidity | Pressure | Rain* | Wind** | Luminosity | Snow |
|---|---|---|---|---|---|---|---|
| 1777843137 | 13.33° C | 38% | 1011.9 hPa | 0 mm | - | 103 W/m² | - |
| 1777842834 | 13.89° C | 39% | 1012 hPa | 0 mm | - | 103 W/m² | - |
| 1777842529 | 13.89° C | 37% | 1011.9 hPa | 0 mm | - | 420 W/m² | - |
| 1777842227 | 13.33° C | 39% | 1012 hPa | 0 mm | - | 124 W/m² | - |
| 1777841922 | 13.33° C | 38% | 1011.9 hPa | 0 mm | - | 139 W/m² | - |
| 1777841619 | 13.89° C | 38% | 1012 hPa | 0 mm | - | 114 W/m² | - |
| 1777841315 | 15° C | 38% | 1012 hPa | 0 mm | - | 499 W/m² | - |
| 1777841012 | 13.89° C | 39% | 1012 hPa | 0 mm | - | 170 W/m² | - |
| 1777840710 | 15° C | 38% | 1012 hPa | 0 mm | - | 142 W/m² | - |
| 1777840407 | 14.44° C | 39% | 1012.3 hPa | 0 mm | - | 459 W/m² | - |
| 1777840104 | 13.33° C | 41% | 1012.2 hPa | 0 mm | - | 424 W/m² | - |
| 1777839802 | 13.33° C | 39% | 1012.3 hPa | 0 mm | - | 174 W/m² | - |
| 1777839500 | 14.44° C | 38% | 1012.6 hPa | 0 mm | - | 176 W/m² | - |
| 1777839196 | 13.89° C | 38% | 1012.3 hPa | 0 mm | - | 594 W/m² | - |
| 1777838894 | 13.33° C | 38% | 1012.3 hPa | 0 mm | - | 180 W/m² | - |
| 1777838590 | 13.33° C | 40% | 1012.6 hPa | 0 mm | - | 128 W/m² | - |
| 1777838287 | 13.89° C | 37% | 1012.6 hPa | 0 mm | - | 602 W/m² | - |
| 1777837984 | 13.33° C | 38% | 1012.5 hPa | 0 mm | - | 171 W/m² | - |
| 1777837681 | 13.33° C | 38% | 1012.5 hPa | 0 mm | - | 674 W/m² | - |
| 1777837376 | 12.78° C | 38% | 1012.6 hPa | 0 mm | - | 647 W/m² | - |
| 1777837073 | 13.33° C | 38% | 1012.6 hPa | 0 mm | - | 656 W/m² | - |
| 1777836769 | 13.33° C | 38% | 1012.6 hPa | 0 mm | - | 156 W/m² | - |
| 1777836459 | 13.89° C | 38% | 1012.8 hPa | 0 mm | - | 446 W/m² | - |
| 1777836154 | 14.44° C | 36% | 1012.8 hPa | 0 mm | - | 654 W/m² | - |
| 1777835852 | 13.33° C | 37% | 1013 hPa | 0 mm | - | 730 W/m² | - |
* Rain latest hour (hover to see other rain measurements)
** Current wind speed in m/s (hover to see current wind gust speed)